Putnam, IL

2:29 AM CDT on September 02, 2015 (GMT -0500)
APRSWXNET | | Change Station
CLOSE
Current Station
Personal Weather Station
Location: Henry, IL
Elevation: 554 ft
Nearby Weather Stations

Elev 554 ft 41.12 °N, 89.38 °W | Updated 21 minutes ago

Clear
Clear
72 °F
Feels Like 72 °F
N
0
Wind Variable Wind from SE
Gusts 2.0 mph

Today
High -- | Low -- °F
--% Chance of Precip.
Yesterday
High -- | Low -- °F
Precip. -- in
6:25 AM 7:29 PM
Waning Gibbous, 82% visible
Pressure 30.03 in
Visibility 10.0 miles
Clouds Clear
Dew Point 69 °F
Humidity 90%
Rainfall in
Snow Depth Not available.
UV 0 out of 12
Pollen 10.90 out of 12
Air Quality Not available.
Flu Activity Not available.
METAR KC75 020715Z AUTO 14003KT 10SM CLR 22/20 A3003 RMK AO2 T02220199
Pressure 30.03 in
Visibility 10.0 miles
Clouds Clear
Dew Point 69 °F
Humidity 90%
Rainfall in
Snow Depth Not available.
UV 0 out of 12
Pollen 10.90 out of 12
Air Quality Not available.
Flu Activity Not available.
METAR KC75 020715Z AUTO 14003KT 10SM CLR 22/20 A3003 RMK AO2 T02220199

10-Day Weather Forecast

×

Almanac

Astronomy

Sep. 02, 2015 Rise Set
Actual Time
Civil Twilight
Nautical Twilight
Astronomical Twilight
Moon
Length of Visible Light
Length of Day
Tomorrow will be .
, % of the Moon is Illuminated

Today's Extremes

State Highs State Lows

Community

WunderPhotos

Upload Photos

1,851,721 photos uploaded!

WunderBlogs® & News

Nearby

Air Quality

  Air Quality AQ Index Pollutant
Not available.

Snow Depth

Station Depth Elevation

Earthquake Activity

City Distance Mag. Time & Date
Minimum magnitude displayed is 2.5.

Coastal Water Temperatures

Place Temperature

Stations

Nearby Weather Stations

Station Location Temp. Windchill Dew Point Humidity Wind Precip. Elev Updated Type